Main page
METAR-TAF:

METAR-TAF

Airports :

Nador International Airport

Nador, Morocco

latitude: 34-59-20N, longitude: 003-01-42W, elevation: 175 m

Current weather observation

The report was made 1 hour and 1 minutes ago, at 08:00 UTC
Wind 2 kt from the South/Southeast
Temperature 14°C
Humidity 88%
Pressure 1004 hPa
Visibility: 8000 m
Few clouds at a height of 2000 ft
Broken clouds at a height of 10000 ft

METAR: GMMW 180800Z 16002KT 8000 FEW020 BKN100 14/12 Q1004 NOSIG

Time: 09:01 (09:01 UTC)

Forecast

The report was made 4 hours and 1 minutes ago, at 05:00 UTC
Forecast valid from 18 at 06 UTC to 19 at 12 UTC
Wind 2 kt from variable directions
Visibility: 4000 m
Scattered clouds at a height of 1000 ft
mist
Becoming
from 18 at 08 UTC to 18 at 10 UTC
Visibility: 8000 m

TAF: GMMW 180500Z 1806/1912 VRB02KT 4000 BR SCT010 BECMG 1808/1810 8000 NSW

Weather observations and forecasts of more than 4000 airports (METAR and TAF reports).

The available stations are represented by yellow and red dots on the map.

Hover mouse over dot to see the name of the station.

Then click to see weather observations and forecasts.

To change the map : click on the green buttons with a black cross to zoom in, on the green button with a dash to zoom out, or on the green arrows for adjacent maps.


METAR-TAF: